Time;durP1;ratioP1;P1;durP2;ratioP2;P2;SDS_P1;SDS_P2;PMS_P1;PMS_P2;Temp;Humidity;BMP_temperature;BMP_pressure;BME280_temperature;BME280_humidity;BME280_pressure;Samples;Min_cycle;Max_cycle;Signal;HPM_P1;HPM_P2
2022/02/20 00:01:50;;;;;;;2.33;1.30;;;;;;;4.51;69.79;152521.69;5049166;28;20864;-78
2022/02/20 00:04:25;;;;;;;3.60;1.27;;;;;;;4.50;73.00;152519.09;5029006;28;20446;-78
2022/02/20 00:07:01;;;;;;;2.70;1.30;;;;;;;4.49;71.69;152516.56;5030285;28;20450;-79
2022/02/20 00:09:39;;;;;;;3.13;1.00;;;;;;;4.48;70.77;152512.66;5026478;28;20446;-79
2022/02/20 00:12:16;;;;;;;5.97;1.70;;;;;;;4.50;71.27;152519.09;5022826;28;20454;-78
2022/02/20 00:14:51;;;;;;;1.70;1.43;;;;;;;4.49;74.38;152515.25;5018611;28;20805;-78
2022/02/20 00:17:27;;;;;;;3.53;1.47;;;;;;;4.49;72.06;152515.25;5016199;28;20443;-78
2022/02/20 00:20:03;;;;;;;2.93;1.40;;;;;;;4.47;74.33;152511.41;5030424;28;20447;-78
2022/02/20 00:22:39;;;;;;;4.83;1.57;;;;;;;4.43;73.29;152501.09;5014535;28;20537;-78
2022/02/20 00:25:15;;;;;;;3.80;1.37;;;;;;;4.45;75.04;152504.97;5026680;28;20462;-78
2022/02/20 00:27:52;;;;;;;3.00;1.40;;;;;;;4.41;74.41;152495.94;5026419;28;20458;-78
2022/02/20 00:30:28;;;;;;;1.90;0.90;;;;;;;4.34;76.98;152477.94;5028558;28;20813;-78
2022/02/20 00:33:04;;;;;;;1.50;1.10;;;;;;;4.36;75.26;152481.78;5012924;28;20533;-78
2022/02/20 00:35:41;;;;;;;1.93;1.10;;;;;;;4.34;76.57;152476.63;5016320;28;20980;-78
2022/02/20 00:38:18;;;;;;;2.13;0.93;;;;;;;4.29;78.00;152465.00;5031846;28;20439;-78
2022/02/20 00:40:55;;;;;;;2.63;1.20;;;;;;;4.34;77.30;152477.94;5048934;28;20619;-78
2022/02/20 00:43:32;;;;;;;2.90;1.10;;;;;;;4.23;78.31;152449.59;5027931;28;20930;-78
2022/02/20 00:46:07;;;;;;;1.90;1.10;;;;;;;4.22;79.46;152447.00;5029280;28;20822;-78
2022/02/20 00:48:43;;;;;;;4.20;1.03;;;;;;;4.26;80.26;152457.31;5030302;28;20950;-78
2022/02/20 00:51:19;;;;;;;3.23;1.30;;;;;;;4.19;80.96;152439.25;5032743;28;20467;-78
2022/02/20 00:53:54;;;;;;;4.20;0.97;;;;;;;4.16;80.69;152432.81;5047534;28;20446;-78
2022/02/20 00:56:30;;;;;;;2.60;1.23;;;;;;;4.12;80.61;152422.53;5016156;28;20447;-78
2022/02/20 00:59:08;;;;;;;3.13;2.43;;;;;;;4.17;80.29;152434.13;5016037;28;20446;-78
2022/02/20 01:01:44;;;;;;;1.97;1.33;;;;;;;4.13;79.80;152423.84;5012846;28;20474;-78
2022/02/20 01:04:19;;;;;;;4.87;1.20;;;;;;;4.12;80.79;152422.53;5028485;28;20451;-78
2022/02/20 01:06:56;;;;;;;3.33;1.00;;;;;;;4.14;80.53;152426.38;5031832;28;20470;-78
2022/02/20 01:09:32;;;;;;;3.47;1.40;;;;;;;4.17;81.52;152434.13;5046099;28;20439;-77
2022/02/20 01:12:09;;;;;;;5.80;1.50;;;;;;;4.18;80.80;152437.97;5046770;28;20473;-78
2022/02/20 01:14:46;;;;;;;2.67;1.00;;;;;;;4.17;81.84;152434.13;5038271;28;20455;-78
2022/02/20 01:17:22;;;;;;;3.53;1.47;;;;;;;4.18;82.97;152436.72;5015023;28;20461;-78
2022/02/20 01:19:58;;;;;;;2.10;1.00;;;;;;;4.15;82.69;152428.97;5013437;28;20804;-77
2022/02/20 01:22:34;;;;;;;3.00;1.37;;;;;;;4.11;82.78;152418.66;5014993;28;20482;-78
2022/02/20 01:25:10;;;;;;;2.00;1.00;;;;;;;4.12;82.67;152421.25;5033609;28;20446;-77
2022/02/20 01:27:45;;;;;;;3.10;1.47;;;;;;;4.13;83.80;152423.84;5026519;28;20443;-78
2022/02/20 01:30:22;;;;;;;3.50;1.20;;;;;;;4.12;82.34;152421.25;5035125;28;20466;-78
2022/02/20 01:32:58;;;;;;;3.83;1.23;;;;;;;4.10;83.27;152417.34;5033667;28;20443;-78
2022/02/20 01:35:35;;;;;;;7.10;1.80;;;;;;;4.12;83.27;152421.25;5035043;28;20963;-78
2022/02/20 01:38:15;;;;;;;4.90;1.30;;;;;;;4.09;83.24;152414.81;5019011;28;20455;-78
2022/02/20 01:40:51;;;;;;;2.83;1.20;;;;;;;4.16;83.06;152432.81;5040335;28;20562;-78
2022/02/20 01:43:27;;;;;;;2.60;1.27;;;;;;;4.14;84.14;152427.69;5018494;28;20474;-77
2022/02/20 01:46:06;;;;;;;5.07;1.00;;;;;;;4.16;83.41;152431.53;5028058;28;20454;-77
2022/02/20 01:48:43;;;;;;;1.23;0.90;;;;;;;4.16;85.85;152432.81;5018157;28;20446;-78
2022/02/20 01:51:18;;;;;;;2.97;1.37;;;;;;;4.13;84.70;152423.84;5026264;28;20468;-78
2022/02/20 01:53:58;;;;;;;2.87;1.10;;;;;;;4.14;84.11;152427.69;5035405;28;20435;-78
2022/02/20 01:56:34;;;;;;;3.13;1.40;;;;;;;4.18;83.68;152436.72;5019417;28;20457;-78
2022/02/20 01:59:27;;;;;;;4.30;1.17;;;;;;;4.17;84.36;152434.13;5046902;28;20439;-77
2022/02/20 02:02:30;;;;;;;2.50;1.30;;;;;;;4.12;84.11;152421.25;5049067;28;20434;-78
2022/02/20 02:05:12;;;;;;;2.17;1.20;;;;;;;4.10;86.09;152416.09;5014842;28;20451;-77
2022/02/20 02:07:51;;;;;;;3.63;1.60;;;;;;;4.15;85.32;152430.28;5030925;28;20446;-78
2022/02/20 02:10:42;;;;;;;2.23;1.10;;;;;;;4.18;85.63;152436.72;5031465;28;20485;-78
2022/02/20 02:13:29;;;;;;;2.83;1.43;;;;;;;4.18;84.58;152436.72;5030691;28;20454;-78
2022/02/20 02:16:05;;;;;;;2.47;1.43;;;;;;;4.15;84.75;152428.97;5036969;28;20478;-77
2022/02/20 02:19:12;;;;;;;1.70;1.03;;;;;;;4.17;87.38;152434.13;5021644;28;20450;-78
2022/02/20 02:22:00;;;;;;;3.30;1.73;;;;;;;4.19;84.45;152439.25;5033346;28;20439;-77
2022/02/20 02:24:49;;;;;;;4.17;0.97;;;;;;;4.22;84.97;152447.00;5034255;28;20443;-77
2022/02/20 02:27:39;;;;;;;2.30;1.10;;;;;;;4.23;84.93;152450.88;5017599;28;20536;-77
2022/02/20 02:30:42;;;;;;;3.00;1.27;;;;;;;4.26;85.27;152457.31;5032199;28;20474;-77
2022/02/20 02:33:29;;;;;;;1.60;0.87;;;;;;;4.27;85.43;152459.88;5015654;28;20440;-79
2022/02/20 02:36:07;;;;;;;1.60;0.90;;;;;;;4.27;84.92;152461.16;5028130;28;20823;-79
2022/02/20 02:38:44;;;;;;;1.80;1.37;;;;;;;4.25;83.75;152454.72;5029936;28;20479;-79
2022/02/20 02:41:24;;;;;;;5.53;1.40;;;;;;;4.27;85.61;152461.16;5016957;28;20529;-79
2022/02/20 02:44:04;;;;;;;2.30;1.00;;;;;;;4.29;86.19;152466.31;5030269;28;20455;-79
2022/02/20 02:46:39;;;;;;;2.17;0.97;;;;;;;4.32;85.78;152472.75;5032901;28;20960;-79
2022/02/20 02:49:17;;;;;;;1.33;0.90;;;;;;;4.35;85.52;152480.47;5049444;28;20474;-78
2022/02/20 02:51:53;;;;;;;1.80;0.77;;;;;;;4.29;85.74;152465.00;5031360;28;20858;-79
2022/02/20 02:54:31;;;;;;;1.57;0.83;;;;;;;4.36;84.58;152483.06;5015705;28;20446;-79
2022/02/20 02:57:07;;;;;;;3.60;1.60;;;;;;;4.40;85.00;152492.06;5015396;28;20538;-78
2022/02/20 02:59:44;;;;;;;1.20;0.87;;;;;;;4.38;85.04;152486.91;5017590;28;20455;-78
2022/02/20 03:02:20;;;;;;;7.23;1.30;;;;;;;4.39;85.70;152489.50;5032383;28;20470;-79
2022/02/20 03:05:00;;;;;;;2.43;0.90;;;;;;;4.39;87.48;152490.81;5031514;28;20466;-79
2022/02/20 03:07:36;;;;;;;2.43;0.80;;;;;;;4.37;85.26;152485.63;5031391;28;20534;-79
2022/02/20 03:10:13;;;;;;;6.40;1.23;;;;;;;4.39;85.31;152489.50;5020729;28;20458;-79
2022/02/20 03:12:50;;;;;;;1.60;0.80;;;;;;;4.43;85.58;152501.09;5032310;28;20432;-79
2022/02/20 03:15:27;;;;;;;4.07;1.23;;;;;;;4.42;86.21;152498.50;5013376;28;20454;-79
2022/02/20 03:18:03;;;;;;;1.83;1.10;;;;;;;4.41;85.31;152495.94;5030304;28;20458;-79
2022/02/20 03:20:39;;;;;;;2.10;1.40;;;;;;;4.48;87.25;152513.97;5032830;28;20458;-79
2022/02/20 03:23:14;;;;;;;1.97;1.00;;;;;;;4.46;85.85;152508.81;5031666;28;20447;-79
2022/02/20 03:25:53;;;;;;;2.70;0.87;;;;;;;4.47;86.39;152510.13;5015837;28;20458;-79
2022/02/20 03:28:29;;;;;;;5.13;1.40;;;;;;;4.50;86.43;152517.84;5009729;28;20505;-78
2022/02/20 03:31:11;;;;;;;1.73;0.83;;;;;;;4.52;86.27;152524.28;5033246;28;20502;-79
2022/02/20 03:33:46;;;;;;;1.93;0.80;;;;;;;4.51;86.18;152521.69;5017042;28;20834;-79
2022/02/20 03:36:22;;;;;;;3.90;0.67;;;;;;;4.50;86.30;152519.09;5016502;28;20798;-79
2022/02/20 03:38:59;;;;;;;2.90;0.83;;;;;;;4.52;86.16;152524.28;5017765;28;20470;-79
2022/02/20 03:41:40;;;;;;;1.50;1.00;;;;;;;4.56;86.28;152534.59;5016732;28;20462;-79
2022/02/20 03:44:18;;;;;;;2.33;1.03;;;;;;;4.49;87.09;152515.25;5011834;28;20834;-79
2022/02/20 03:47:10;;;;;;;3.13;1.17;;;;;;;4.49;87.96;152516.56;5032919;28;20450;-79
2022/02/20 03:49:46;;;;;;;1.30;1.00;;;;;;;4.52;86.85;152523.00;5012456;28;20569;-79
2022/02/20 03:52:42;;;;;;;1.87;1.10;;;;;;;4.52;86.99;152524.28;5034639;28;20467;-79
2022/02/20 03:55:25;;;;;;;1.80;0.73;;;;;;;4.52;87.31;152523.00;5022021;28;20494;-79
2022/02/20 03:58:03;;;;;;;2.10;0.60;;;;;;;4.61;86.72;152546.16;5015654;28;20455;-79
2022/02/20 04:00:45;;;;;;;1.00;0.90;;;;;;;4.57;88.19;152537.19;5026722;28;20455;-79
2022/02/20 04:03:36;;;;;;;1.60;0.90;;;;;;;4.54;89.62;152529.44;5010876;28;20454;-79
2022/02/20 04:06:14;;;;;;;1.30;1.10;;;;;;;4.55;89.84;152532.03;5026688;28;20444;-78
2022/02/20 04:08:58;;;;;;;1.63;1.10;;;;;;;4.54;90.11;152529.44;5013482;28;20700;-79
2022/02/20 04:11:34;;;;;;;2.10;1.23;;;;;;;4.51;91.94;152521.69;5026935;28;20471;-79
2022/02/20 04:14:30;;;;;;;1.20;0.80;;;;;;;4.49;92.84;152515.25;5026963;28;20452;-79
2022/02/20 04:17:13;;;;;;;2.50;1.00;;;;;;;4.54;94.43;152528.13;5022352;28;20452;-79
2022/02/20 04:19:52;;;;;;;2.30;0.80;;;;;;;4.55;93.28;152532.03;5023553;28;20502;-79
2022/02/20 04:22:28;;;;;;;1.87;0.80;;;;;;;4.53;93.62;152526.84;5023384;28;20445;-79
2022/02/20 04:25:05;;;;;;;1.30;0.80;;;;;;;4.53;93.71;152525.53;5044229;28;20444;-79
2022/02/20 04:27:40;;;;;;;2.00;0.63;;;;;;;4.48;94.30;152512.66;5026715;28;20483;-79
2022/02/20 04:30:19;;;;;;;1.50;0.80;;;;;;;4.56;94.66;152533.28;5028723;28;20531;-79
2022/02/20 04:33:00;;;;;;;2.80;0.80;;;;;;;4.51;94.55;152521.69;5026380;28;21010;-79
2022/02/20 04:35:36;;;;;;;1.37;0.70;;;;;;;4.52;95.52;152524.28;5021887;28;20459;-79
2022/02/20 04:38:11;;;;;;;0.90;0.60;;;;;;;4.50;96.52;152519.09;5011403;28;20953;-78
2022/02/20 04:40:47;;;;;;;1.27;0.90;;;;;;;4.49;95.75;152515.25;5012651;28;20848;-79
2022/02/20 04:43:27;;;;;;;0.83;0.70;;;;;;;4.51;96.60;152520.41;5009295;28;20444;-79
2022/02/20 04:46:08;;;;;;;1.13;0.80;;;;;;;4.49;97.33;152515.25;5043465;28;20443;-79
2022/02/20 04:48:44;;;;;;;3.63;0.60;;;;;;;4.48;97.04;152512.66;5014929;28;20447;-79
2022/02/20 04:51:34;;;;;;;1.40;0.80;;;;;;;4.46;97.43;152508.81;5046285;28;20561;-79
2022/02/20 04:54:10;;;;;;;1.63;0.73;;;;;;;4.50;97.35;152519.09;5030356;28;20541;-79
2022/02/20 04:56:46;;;;;;;1.50;0.77;;;;;;;4.41;97.93;152495.94;5030304;28;20941;-79
2022/02/20 04:59:25;;;;;;;4.33;1.17;;;;;;;4.42;97.96;152498.50;5047954;28;20448;-79
2022/02/20 05:02:02;;;;;;;1.10;0.67;;;;;;;4.43;98.89;152499.78;5035008;28;20431;-79
2022/02/20 05:04:44;;;;;;;2.70;0.93;;;;;;;4.40;97.39;152493.34;5015414;28;20450;-79
2022/02/20 05:07:21;;;;;;;2.80;1.07;;;;;;;4.44;98.88;152503.69;5017520;28;20459;-79
2022/02/20 05:09:57;;;;;;;1.60;0.80;;;;;;;4.47;98.68;152510.13;5028980;28;20457;-79
2022/02/20 05:12:33;;;;;;;1.23;0.70;;;;;;;4.39;99.05;152489.50;5018750;28;20474;-79
2022/02/20 05:15:09;;;;;;;0.77;0.60;;;;;;;4.36;99.53;152483.06;5035451;28;20937;-79
2022/02/20 05:17:49;;;;;;;1.13;0.73;;;;;;;4.39;99.04;152490.81;5034288;28;20434;-79
2022/02/20 05:20:25;;;;;;;1.20;0.63;;;;;;;4.38;99.11;152486.91;5017475;28;20451;-79
2022/02/20 05:23:03;;;;;;;3.17;0.67;;;;;;;4.35;100.00;152479.19;5018860;28;20454;-79
2022/02/20 05:25:39;;;;;;;2.90;0.77;;;;;;;4.35;99.83;152480.47;5019044;28;20984;-79
2022/02/20 05:28:15;;;;;;;0.80;0.63;;;;;;;4.34;100.00;152477.94;5033041;28;20455;-79
2022/02/20 05:30:51;;;;;;;0.93;0.70;;;;;;;4.34;100.00;152477.94;5017834;28;20442;-79
2022/02/20 05:33:42;;;;;;;0.80;0.70;;;;;;;4.32;100.00;152472.75;5035463;28;20431;-79
2022/02/20 05:36:17;;;;;;;1.93;1.07;;;;;;;4.32;100.00;152472.75;5029444;28;20450;-78
2022/02/20 05:39:00;;;;;;;1.13;0.70;;;;;;;4.37;100.00;152485.63;5031033;28;20462;-78
2022/02/20 05:41:38;;;;;;;1.47;0.93;;;;;;;4.41;100.00;152495.94;5019327;28;20934;-79
2022/02/20 05:44:14;;;;;;;1.10;0.80;;;;;;;4.39;100.00;152490.81;5018792;28;20482;-78
2022/02/20 05:46:56;;;;;;;1.83;0.80;;;;;;;4.37;100.00;152484.38;5019337;28;20446;-78
2022/02/20 05:49:35;;;;;;;1.00;0.70;;;;;;;4.35;100.00;152479.19;5033774;28;20474;-78
2022/02/20 05:52:10;;;;;;;2.40;1.17;;;;;;;4.38;100.00;152488.22;5018999;28;20768;-78
2022/02/20 05:54:51;;;;;;;1.20;0.60;;;;;;;4.32;100.00;152474.03;5013463;28;20487;-79
2022/02/20 05:57:27;;;;;;;3.10;0.70;;;;;;;4.31;100.00;152471.44;5029897;28;20458;-78
2022/02/20 06:00:09;;;;;;;0.83;0.70;;;;;;;4.35;100.00;152480.47;5016782;28;20454;-78
2022/02/20 06:02:51;;;;;;;1.50;0.90;;;;;;;4.38;100.00;152488.22;5031053;28;20447;-78
2022/02/20 06:05:28;;;;;;;1.43;0.87;;;;;;;4.45;100.00;152504.97;5048092;28;20438;-78
2022/02/20 06:08:23;;;;;;;1.83;0.97;;;;;;;4.44;100.00;152503.69;5048238;28;20474;-78
2022/02/20 06:11:10;;;;;;;2.87;1.13;;;;;;;4.42;100.00;152498.50;5015302;28;20447;-78
2022/02/20 06:13:53;;;;;;;3.33;1.03;;;;;;;4.40;100.00;152493.34;5049996;28;20431;-78
2022/02/20 06:16:47;;;;;;;1.37;0.93;;;;;;;4.40;100.00;152493.34;5030279;28;20459;-78
2022/02/20 06:19:42;;;;;;;1.67;0.70;;;;;;;4.44;100.00;152503.69;5050314;28;20462;-78
2022/02/20 06:22:33;;;;;;;1.30;0.97;;;;;;;4.54;100.00;152529.44;5034604;28;20438;-78
2022/02/20 06:25:29;;;;;;;1.73;0.80;;;;;;;4.46;100.00;152507.53;5047718;28;20493;-78
2022/02/20 06:28:17;;;;;;;3.27;0.90;;;;;;;4.50;100.00;152519.09;5048117;28;20447;-78
2022/02/20 06:30:52;;;;;;;1.00;0.70;;;;;;;4.51;100.00;152521.69;5033152;28;20498;-78
2022/02/20 06:33:34;;;;;;;2.33;0.90;;;;;;;4.47;100.00;152511.41;5029851;28;20466;-78
2022/02/20 06:36:14;;;;;;;1.00;0.80;;;;;;;4.49;100.00;152515.25;5032685;28;20450;-78
2022/02/20 06:38:55;;;;;;;2.20;0.80;;;;;;;4.52;100.00;152524.28;5030246;28;20773;-78
2022/02/20 06:41:33;;;;;;;0.73;0.60;;;;;;;4.58;100.00;152538.47;5031372;28;20455;-78
2022/02/20 06:44:09;;;;;;;0.80;0.63;;;;;;;4.59;100.00;152542.31;5029320;28;20810;-78
2022/02/20 06:47:04;;;;;;;1.17;0.70;;;;;;;4.57;100.00;152537.19;5052236;28;20447;-78
2022/02/20 06:49:56;;;;;;;1.00;0.60;;;;;;;4.56;100.00;152534.59;5026367;28;20949;-78
2022/02/20 06:52:38;;;;;;;2.40;1.07;;;;;;;4.64;99.46;152553.91;5006070;28;20562;-78
2022/02/20 06:55:32;;;;;;;0.97;0.63;;;;;;;4.66;99.82;152560.34;5023584;28;20492;-78
2022/02/20 06:58:14;;;;;;;1.83;0.80;;;;;;;4.64;99.02;152553.91;4998104;28;20471;-79
2022/02/20 07:00:50;;;;;;;2.37;0.50;;;;;;;4.64;99.60;152555.19;5006575;28;20460;-78
2022/02/20 07:03:26;;;;;;;0.90;0.60;;;;;;;4.64;99.27;152555.19;5022621;28;20475;-79
2022/02/20 07:06:01;;;;;;;0.70;0.60;;;;;;;4.72;99.38;152575.81;4995075;28;20551;-78
2022/02/20 07:08:37;;;;;;;0.70;0.40;;;;;;;4.76;97.52;152586.16;5005935;28;20523;-79
2022/02/20 07:11:14;;;;;;;0.70;0.50;;;;;;;4.77;98.33;152588.69;4990122;28;20798;-78
2022/02/20 07:13:49;;;;;;;2.40;0.90;;;;;;;4.75;98.74;152582.25;5001885;28;20469;-79
2022/02/20 07:16:25;;;;;;;1.77;0.50;;;;;;;4.71;98.75;152573.22;4995338;28;20455;-78
2022/02/20 07:19:01;;;;;;;1.47;0.70;;;;;;;4.81;98.17;152597.72;5026217;28;20440;-79
2022/02/20 07:21:36;;;;;;;0.87;0.67;;;;;;;4.81;97.60;152599.03;5021541;28;20460;-78
2022/02/20 07:24:13;;;;;;;0.73;0.50;;;;;;;4.81;97.60;152599.03;4993616;28;20527;-78
2022/02/20 07:26:50;;;;;;;1.90;0.73;;;;;;;4.84;98.00;152606.72;4992880;28;20528;-78
2022/02/20 07:29:26;;;;;;;1.30;0.70;;;;;;;4.84;97.65;152606.72;5008214;28;20506;-78
2022/02/20 07:32:01;;;;;;;2.03;0.70;;;;;;;4.85;98.55;152609.31;4990673;28;20473;-78
2022/02/20 07:34:37;;;;;;;1.53;0.80;;;;;;;4.85;98.67;152609.31;4993413;28;20441;-78
2022/02/20 07:37:14;;;;;;;0.97;0.70;;;;;;;4.89;98.37;152619.66;5022934;28;20531;-78
2022/02/20 07:39:49;;;;;;;1.70;0.70;;;;;;;4.95;97.69;152632.53;5008678;28;20460;-78
2022/02/20 07:42:27;;;;;;;2.13;0.60;;;;;;;4.97;96.73;152638.97;5010880;28;20448;-78
2022/02/20 07:45:02;;;;;;;1.30;0.80;;;;;;;4.98;96.78;152640.28;5019211;28;20448;-78
2022/02/20 07:47:48;;;;;;;2.60;0.70;;;;;;;5.03;96.92;152653.16;4989948;28;20551;-78
2022/02/20 07:50:24;;;;;;;1.20;0.77;;;;;;;5.11;96.01;152673.78;5021078;28;20475;-78
2022/02/20 07:53:01;;;;;;;0.90;0.70;;;;;;;5.15;96.52;152684.06;5024563;28;20464;-78
2022/02/20 07:55:37;;;;;;;1.43;0.67;;;;;;;5.14;96.90;152681.47;5027568;28;20463;-79
2022/02/20 07:58:16;;;;;;;1.23;0.63;;;;;;;5.15;97.02;152684.06;5039952;28;20451;-78
2022/02/20 08:00:51;;;;;;;1.10;0.70;;;;;;;5.22;95.03;152702.09;5039731;28;20590;-78
2022/02/20 08:03:26;;;;;;;2.07;1.00;;;;;;;5.26;96.10;152712.44;5023719;28;20448;-78
2022/02/20 08:06:04;;;;;;;1.10;0.60;;;;;;;5.25;95.69;152709.84;5024416;28;20459;-78
2022/02/20 08:08:39;;;;;;;0.80;0.53;;;;;;;5.32;95.82;152727.91;5022798;28;20538;-78
2022/02/20 08:11:15;;;;;;;1.70;0.77;;;;;;;5.38;96.49;152743.34;5008411;28;20459;-78
2022/02/20 08:13:52;;;;;;;3.07;1.47;;;;;;;5.44;95.87;152758.84;5023356;28;20463;-78
2022/02/20 08:16:28;;;;;;;1.50;0.90;;;;;;;5.49;95.09;152773.03;5015370;28;20456;-79
2022/02/20 08:19:04;;;;;;;0.90;0.67;;;;;;;5.53;94.33;152782.06;5048477;28;20893;-78
2022/02/20 08:21:39;;;;;;;1.00;0.60;;;;;;;5.56;94.88;152788.50;5024040;28;20912;-78
2022/02/20 08:24:16;;;;;;;1.83;0.80;;;;;;;5.56;92.78;152789.75;5023891;28;20447;-78
2022/02/20 08:26:52;;;;;;;1.10;0.70;;;;;;;5.59;94.03;152796.25;5022857;28;20541;-78
2022/02/20 08:29:29;;;;;;;1.20;0.80;;;;;;;5.65;93.17;152811.69;5011794;28;20455;-78
2022/02/20 08:32:06;;;;;;;1.20;0.77;;;;;;;5.70;93.05;152825.88;5010833;28;20810;-78
2022/02/20 08:34:42;;;;;;;1.80;0.90;;;;;;;5.74;92.25;152834.94;5025778;28;20592;-78
2022/02/20 08:37:17;;;;;;;1.70;0.87;;;;;;;5.84;92.11;152860.72;5022240;28;20452;-78
2022/02/20 08:39:53;;;;;;;2.40;1.00;;;;;;;5.91;91.37;152880.09;5022588;28;20517;-78
2022/02/20 08:42:28;;;;;;;1.23;0.80;;;;;;;5.93;91.67;152885.25;5027685;28;20436;-78
2022/02/20 08:45:07;;;;;;;2.13;0.90;;;;;;;6.05;91.02;152916.25;5029461;28;20549;-78
2022/02/20 08:47:43;;;;;;;1.37;0.80;;;;;;;6.04;91.08;152913.63;5013231;28;21684;-78
2022/02/20 08:50:18;;;;;;;1.10;0.77;;;;;;;6.11;90.70;152930.44;5029423;28;20471;-78
2022/02/20 08:52:54;;;;;;;1.43;0.93;;;;;;;6.12;89.63;152932.97;5016300;28;20471;-78
2022/02/20 08:55:29;;;;;;;2.20;0.70;;;;;;;6.14;89.95;152939.44;5042702;28;20459;-78
2022/02/20 08:58:05;;;;;;;1.17;0.80;;;;;;;6.17;90.80;152944.63;5034247;28;20457;-78
2022/02/20 09:00:43;;;;;;;1.30;0.77;;;;;;;6.29;88.87;152975.56;5030355;28;20858;-78
2022/02/20 09:03:18;;;;;;;1.50;0.83;;;;;;;6.38;89.69;152998.81;5032162;28;20554;-78
2022/02/20 09:05:54;;;;;;;1.23;0.87;;;;;;;6.46;89.05;153020.72;5014468;28;20759;-78
2022/02/20 09:08:30;;;;;;;1.17;0.70;;;;;;;6.47;88.53;153023.31;5027327;28;20521;-78
2022/02/20 09:11:05;;;;;;;1.60;0.73;;;;;;;6.51;88.25;153033.63;5046063;28;20452;-78
2022/02/20 09:13:41;;;;;;;0.90;0.60;;;;;;;6.61;87.33;153059.47;5029930;28;20459;-78
2022/02/20 09:16:19;;;;;;;2.87;1.57;;;;;;;6.64;87.17;153067.22;5048113;28;20447;-78
2022/02/20 09:18:56;;;;;;;1.00;0.70;;;;;;;6.67;87.60;153073.66;5031297;28;20440;-78
2022/02/20 09:21:32;;;;;;;1.30;0.83;;;;;;;6.70;86.51;153081.38;5045964;28;20937;-78
2022/02/20 09:24:07;;;;;;;2.30;0.70;;;;;;;6.72;87.55;153086.56;5029654;28;20447;-78
2022/02/20 09:26:43;;;;;;;1.03;0.80;;;;;;;6.70;86.09;153081.38;5030539;28;20448;-78
2022/02/20 09:29:19;;;;;;;1.10;0.90;;;;;;;6.77;85.39;153099.47;5024640;28;20856;-78
2022/02/20 09:31:56;;;;;;;2.13;0.80;;;;;;;6.79;86.72;153104.63;5015542;28;20459;-78
2022/02/20 09:34:31;;;;;;;1.50;0.60;;;;;;;6.74;85.06;153093.03;5029027;28;21029;-78
2022/02/20 09:37:07;;;;;;;1.40;0.80;;;;;;;6.79;85.46;153104.63;5026705;28;20532;-78
2022/02/20 09:39:43;;;;;;;4.20;1.37;;;;;;;6.79;86.32;153104.63;5040966;28;20471;-78
2022/02/20 09:42:19;;;;;;;1.03;0.60;;;;;;;6.84;84.90;153117.53;5014099;28;20830;-78
2022/02/20 09:44:55;;;;;;;1.00;0.83;;;;;;;6.85;85.18;153118.81;5046941;28;20452;-78
2022/02/20 09:47:32;;;;;;;0.90;0.57;;;;;;;6.88;83.98;153126.59;5045758;28;20487;-78
2022/02/20 09:50:09;;;;;;;0.70;0.60;;;;;;;6.93;84.93;153140.78;5030493;28;20475;-79
2022/02/20 09:52:44;;;;;;;0.87;0.57;;;;;;;6.94;85.33;153143.34;5027137;28;20452;-78
2022/02/20 09:55:20;;;;;;;1.47;0.70;;;;;;;7.01;83.52;153161.44;5026860;28;20456;-78
2022/02/20 09:57:56;;;;;;;2.10;1.23;;;;;;;6.99;85.45;153156.25;5022551;28;20448;-78
2022/02/20 10:00:32;;;;;;;0.90;0.60;;;;;;;7.01;84.82;153161.44;5014736;28;20450;-79
2022/02/20 10:03:27;;;;;;;0.83;0.57;;;;;;;7.13;85.71;153191.09;5026849;28;20437;-79
2022/02/20 10:06:05;;;;;;;1.20;0.70;;;;;;;7.15;85.17;153196.25;5026639;28;21149;-79
2022/02/20 10:08:42;;;;;;;1.33;0.63;;;;;;;7.24;83.17;153220.81;5031748;28;20428;-79
2022/02/20 10:11:22;;;;;;;1.00;0.60;;;;;;;7.20;83.50;153210.47;5029131;28;20455;-79
2022/02/20 10:14:14;;;;;;;0.80;0.50;;;;;;;7.22;83.28;153215.66;5024996;28;20973;-79
2022/02/20 10:16:49;;;;;;;0.70;0.57;;;;;;;7.32;84.08;153241.47;5043891;28;20856;-79
2022/02/20 10:20:00;;;;;;;0.80;0.43;;;;;;;7.32;83.69;153241.47;5031173;28;20439;-79
2022/02/20 10:22:55;;;;;;;0.90;0.70;;;;;;;7.41;84.02;153262.16;5047101;28;20452;-79
2022/02/20 10:25:49;;;;;;;1.37;0.60;;;;;;;7.55;83.99;153298.28;5046201;28;20456;-79
2022/02/20 10:29:06;;;;;;;0.93;0.57;;;;;;;7.54;83.03;153295.72;5001602;28;20433;-79
2022/02/20 10:31:44;;;;;;;0.77;0.50;;;;;;;7.60;82.11;153311.25;5026901;28;20448;-79
2022/02/20 10:34:22;;;;;;;2.07;0.50;;;;;;;7.69;82.63;153334.47;5029290;28;20494;-79
2022/02/20 10:37:01;;;;;;;1.30;0.60;;;;;;;7.68;84.53;153331.84;5029744;28;20467;-79
2022/02/20 10:39:40;;;;;;;1.00;0.67;;;;;;;7.76;82.10;153352.53;5028430;28;20444;-79
2022/02/20 10:42:18;;;;;;;0.90;0.50;;;;;;;7.85;81.11;153375.81;5028515;28;20468;-79
2022/02/20 10:44:56;;;;;;;0.60;0.37;;;;;;;7.97;81.54;153406.78;5013699;28;20530;-79
2022/02/20 10:47:32;;;;;;;1.87;0.70;;;;;;;7.98;80.87;153409.41;5012159;28;20801;-79
2022/02/20 10:50:18;;;;;;;1.90;0.60;;;;;;;8.03;82.86;153421.00;5044623;28;20470;-79
2022/02/20 10:53:12;;;;;;;0.80;0.53;;;;;;;8.06;80.20;153430.06;5030113;28;20467;-79
2022/02/20 10:55:49;;;;;;;1.00;0.40;;;;;;;8.07;79.16;153432.66;5028785;28;21040;-79
2022/02/20 10:58:27;;;;;;;1.70;0.40;;;;;;;8.17;80.39;153458.50;5044863;28;20455;-79
2022/02/20 11:01:04;;;;;;;1.00;0.53;;;;;;;8.21;79.95;153468.81;5034462;28;20453;-79
2022/02/20 11:03:42;;;;;;;0.80;0.40;;;;;;;8.30;79.01;153492.16;5023363;28;20440;-79
2022/02/20 11:06:18;;;;;;;0.70;0.40;;;;;;;8.30;78.71;153492.16;5025069;28;20436;-79
2022/02/20 11:08:56;;;;;;;0.70;0.40;;;;;;;8.39;79.30;153515.38;5050784;28;20486;-79
2022/02/20 11:11:38;;;;;;;1.30;0.80;;;;;;;8.43;79.32;153525.75;5027185;28;20447;-79
2022/02/20 11:14:15;;;;;;;0.90;0.30;;;;;;;8.42;78.89;153521.84;5032616;28;20459;-79
2022/02/20 11:16:52;;;;;;;0.97;0.47;;;;;;;8.42;78.87;153523.16;5027732;28;20825;-79
2022/02/20 11:19:30;;;;;;;1.13;0.70;;;;;;;8.40;80.35;153516.69;5050918;28;20830;-79
2022/02/20 11:22:07;;;;;;;0.70;0.40;;;;;;;8.38;77.99;153511.53;5030788;28;20447;-79
2022/02/20 11:24:46;;;;;;;0.70;0.40;;;;;;;8.37;79.58;153510.22;5049355;28;20453;-79
2022/02/20 11:27:21;;;;;;;0.80;0.60;;;;;;;8.41;78.78;153520.59;5031585;28;20447;-79
2022/02/20 11:29:57;;;;;;;0.80;0.50;;;;;;;8.40;80.29;153518.00;5049116;28;20458;-79
2022/02/20 11:32:33;;;;;;;1.23;0.40;;;;;;;8.41;78.62;153520.59;5037383;28;20450;-79
2022/02/20 11:35:10;;;;;;;0.80;0.40;;;;;;;8.52;77.77;153549.00;5048076;28;20471;-80
2022/02/20 11:37:49;;;;;;;1.10;0.50;;;;;;;8.52;78.37;153549.00;5029993;28;20463;-79
2022/02/20 11:40:29;;;;;;;0.70;0.40;;;;;;;8.54;79.81;153554.19;5013458;28;20565;-79
2022/02/20 11:43:11;;;;;;;0.70;0.50;;;;;;;8.54;78.78;153554.19;5032199;28;20490;-79
2022/02/20 11:46:06;;;;;;;2.50;0.47;;;;;;;8.55;78.05;153556.75;5016798;28;20876;-79
2022/02/20 11:49:19;;;;;;;0.93;0.50;;;;;;;8.55;79.43;153555.50;5023297;28;20546;-79
2022/02/20 11:52:08;;;;;;;0.70;0.40;;;;;;;8.55;79.21;153556.75;5051670;28;20454;-79
2022/02/20 11:54:44;;;;;;;0.70;0.40;;;;;;;8.56;79.93;153558.06;5033377;28;20889;-79
2022/02/20 11:57:28;;;;;;;1.37;0.53;;;;;;;8.63;77.19;153574.88;5034616;28;20504;-78
2022/02/20 12:00:18;;;;;;;0.97;0.50;;;;;;;8.62;77.75;153573.59;5023565;28;20938;-79
2022/02/20 12:03:17;;;;;;;1.23;0.43;;;;;;;8.60;78.13;153568.44;5014723;28;21046;-79
2022/02/20 12:06:22;;;;;;;0.73;0.40;;;;;;;8.63;77.21;153576.13;5045755;28;20494;-79
2022/02/20 12:08:58;;;;;;;0.80;0.40;;;;;;;8.69;77.25;153591.66;5050587;28;20473;-79
2022/02/20 12:11:43;;;;;;;0.83;0.40;;;;;;;8.67;77.99;153585.22;5026648;28;20542;-79
2022/02/20 12:14:22;;;;;;;0.80;0.50;;;;;;;8.70;76.91;153592.97;5028267;28;20463;-79
2022/02/20 12:17:01;;;;;;;0.87;0.50;;;;;;;8.74;77.80;153603.28;5014914;28;20489;-79
2022/02/20 12:19:39;;;;;;;1.40;0.33;;;;;;;8.74;77.21;153603.28;5015918;28;20463;-79
2022/02/20 12:22:26;;;;;;;1.60;0.70;;;;;;;8.75;79.78;153605.91;5032446;28;20443;-79
2022/02/20 12:25:03;;;;;;;0.90;0.50;;;;;;;8.79;78.70;153616.25;5008333;28;20819;-79
2022/02/20 12:27:40;;;;;;;0.80;0.40;;;;;;;8.77;76.75;153611.06;5027647;28;20438;-79
2022/02/20 12:30:19;;;;;;;0.70;0.40;;;;;;;8.81;76.84;153621.41;5028396;28;20490;-78